Time;durP1;ratioP1;P1;durP2;ratioP2;P2;SDS_P1;SDS_P2;PMS_P1;PMS_P2;Temp;Humidity;BMP_temperature;BMP_pressure;BME280_temperature;BME280_humidity;BME280_pressure;Samples;Min_cycle;Max_cycle;Signal;HPM_P1;HPM_P2
2023/10/16 01:57:47;;;;;;;;;;;;;;;7.33;100;102394.5;;;;-87
2023/10/16 02:06:33;;;;;;;;;;;;;;;7.14;100;102343.4;;;;-86
2023/10/16 06:18:50;;;;;;;;;;;;;;;7.87;100;102313.8;;;;-75
2023/10/16 06:23:51;;;;;;;;;;;;;;;7.92;100;102315.1;;;;-76
2023/10/16 06:28:53;;;;;;;;;;;;;;;7.94;100;102317.5;;;;-77
2023/10/16 06:32:39;;;;;;;15.4;6.8;;;;;;;;;;;;;-75
2023/10/16 06:33:53;;;;;;;;;;;;;;;7.95;100;102320.6;;;;-75
2023/10/16 06:38:51;;;;;;;;;;;;;;;7.98;100;102317.2;;;;-77
2023/10/16 06:43:51;;;;;;;;;;;;;;;7.97;100;102317.4;;;;-79
2023/10/16 06:48:54;;;;;;;;;;;;;;;8.02;100;102322.7;;;;-78
2023/10/16 06:53:51;;;;;;;;;;;;;;;8.05;100;102321.5;;;;-79
2023/10/16 08:36:07;;;;;;;;;;;;;;;10.23;100;102351;;;;-89
2023/10/16 09:02:55;;;;;;;5.6;2.1;;;;;;;;;;;;;-90
2023/10/16 09:06:32;;;;;;;;;;;;;;;11.35;100;102353.1;;;;-82
2023/10/16 09:16:30;;;;;;;;;;;;;;;11.65;100;102350.2;;;;-87
2023/10/16 09:26:22;;;;;;;;;;;;;;;12.02;100;102354.2;;;;-83
2023/10/16 09:59:22;;;;;;;;;;;;;;;13.47;94.94629;102360.9;;;;-77
2023/10/16 10:02:44;;;;;;;4;1;;;;;;;;;;;;;-78
2023/10/16 10:03:42;;;;;;;;;;;;;;;13.64;88.79883;102362.8;;;;-78
2023/10/16 10:09:21;;;;;;;;;;;;;;;13.88;87.26465;102365.1;;;;-78
2023/10/16 10:13:55;;;;;;;;;;;;;;;14.04;88.27832;102367.3;;;;-79
2023/10/16 10:18:56;;;;;;;;;;;;;;;14.15;85.3252;102370.2;;;;-79
2023/10/16 10:23:41;;;;;;;;;;;;;;;13.89;81.91211;102370.8;;;;-77
2023/10/16 10:28:45;;;;;;;;;;;;;;;13.76;84.58398;102373.2;;;;-78
2023/10/16 10:32:45;;;;;;;6.1;0.9;;;;;;;;;;;;;-78
2023/10/16 10:33:51;;;;;;;;;;;;;;;13.63;83.38867;102381;;;;-77
2023/10/16 10:38:41;;;;;;;;;;;;;;;13.53;79.78418;102380;;;;-78
2023/10/16 10:43:56;;;;;;;;;;;;;;;13.6;82.53613;102377.9;;;;-74
2023/10/16 10:48:42;;;;;;;;;;;;;;;13.73;79.90039;102374.3;;;;-75
2023/10/16 11:03:06;;;;;;;3.8;0.7;;;;;;;;;;;;;-76
2023/10/16 11:15:07;;;;;;;;;;;;;;;14.44;77.81543;102348.5;;;;-84
2023/10/16 11:20:12;;;;;;;;;;;;;;;14.67;76.35742;102346.9;;;;-82
2023/10/16 11:25:02;;;;;;;;;;;;;;;14.71;73.17773;102336.7;;;;-84
2023/10/16 11:33:09;;;;;;;7.7;0.9;;;;;;;;;;;;;-83
2023/10/16 11:35:13;;;;;;;;;;;;;;;15.37;67.11328;102333;;;;-81
2023/10/16 11:40:18;;;;;;;;;;;;;;;15.52;65.19238;102327.3;;;;-84
2023/10/16 11:59:03;;;;;;;;;;;;;;;15.51;61.2998;102316.5;;;;-74
2023/10/16 12:02:51;;;;;;;;;;;;;;;15.54;64.63379;102314.9;;;;-83
2023/10/16 12:03:27;;;;;;;5.9;0.8;;;;;;;;;;;;;-83
2023/10/16 12:07:43;;;;;;;;;;;;;;;15.71;64.68164;102315.3;;;;-82
2023/10/16 12:12:49;;;;;;;;;;;;;;;15.93;61.33496;102313.4;;;;-83
2023/10/16 12:22:38;;;;;;;;;;;;;;;;;;;;;
2023/10/16 12:42:19;;;;;;;;;;;;;;;16.13;59.58203;102293.1;;;;-75
2023/10/16 12:47:15;;;;;;;;;;;;;;;16.16;57.96094;102293.2;;;;-74
2023/10/16 12:52:15;;;;;;;;;;;;;;;16.21;58.79102;102281;;;;-73
2023/10/16 12:57:18;;;;;;;;;;;;;;;16.4;59.12109;102274.1;;;;-75
2023/10/16 13:02:24;;;;;;;;;;;;;;;16.15;56.91113;102271.4;;;;-76
2023/10/16 13:02:58;;;;;;;6.7;0.9;;;;;;;;;;;;;-76
2023/10/16 13:07:15;;;;;;;;;;;;;;;16.1;58.39258;102265.6;;;;-75
2023/10/16 13:12:16;;;;;;;;;;;;;;;15.93;57.99902;102264.2;;;;-74
2023/10/16 13:17:15;;;;;;;;;;;;;;;16;58.22266;102266.5;;;;-75
2023/10/16 13:22:17;;;;;;;;;;;;;;;15.92;57.88477;102265.5;;;;-74
2023/10/16 13:27:18;;;;;;;;;;;;;;;15.84;57.12988;102273.4;;;;-73
2023/10/16 13:32:16;;;;;;;;;;;;;;;15.97;58.64648;102270.2;;;;-75
2023/10/16 13:33:04;;;;;;;4.7;0.9;;;;;;;;;;;;;-75
2023/10/16 13:37:15;;;;;;;;;;;;;;;15.87;60.85352;102269.4;;;;-74
2023/10/16 13:42:15;;;;;;;;;;;;;;;15.72;58.77051;102267.3;;;;-74
2023/10/16 13:47:16;;;;;;;;;;;;;;;15.79;60.32422;102264.2;;;;-74
2023/10/16 13:52:18;;;;;;;;;;;;;;;15.7;60.37891;102264.6;;;;-74
2023/10/16 13:57:15;;;;;;;;;;;;;;;15.82;58.44727;102257.9;;;;-75
2023/10/16 14:02:16;;;;;;;;;;;;;;;15.76;60.33105;102254.6;;;;-73
2023/10/16 14:03:04;;;;;;;5.2;1;;;;;;;;;;;;;-74
2023/10/16 14:07:19;;;;;;;;;;;;;;;15.76;59.57715;102256.7;;;;-74
2023/10/16 14:12:17;;;;;;;;;;;;;;;15.75;58.58301;102256.5;;;;-75
2023/10/16 14:17:20;;;;;;;;;;;;;;;15.79;59.43359;102255;;;;-77
2023/10/16 14:22:16;;;;;;;;;;;;;;;15.57;59.86621;102253.6;;;;-75
2023/10/16 14:27:24;;;;;;;;;;;;;;;15.38;65.03809;102251.5;;;;-74
2023/10/16 14:32:15;;;;;;;;;;;;;;;15.51;60.09473;102250.7;;;;-74
2023/10/16 14:33:06;;;;;;;4.5;0.9;;;;;;;;;;;;;-75
2023/10/16 14:37:15;;;;;;;;;;;;;;;15.6;58.93457;102254.2;;;;-73
2023/10/16 14:42:17;;;;;;;;;;;;;;;15.5;57.97559;102253.8;;;;-74
2023/10/16 14:47:15;;;;;;;;;;;;;;;15.5;58.20117;102252.5;;;;-74
2023/10/16 14:52:16;;;;;;;;;;;;;;;15.4;58.86328;102251.5;;;;-74
2023/10/16 14:57:20;;;;;;;;;;;;;;;15.29;58.07227;102245.3;;;;-73
2023/10/16 15:02:22;;;;;;;;;;;;;;;15.2;57.90332;102238.8;;;;-73
2023/10/16 15:03:10;;;;;;;4.5;0.9;;;;;;;;;;;;;-73
2023/10/16 15:07:15;;;;;;;;;;;;;;;15;61.28418;102232.4;;;;-75
2023/10/16 15:12:16;;;;;;;;;;;;;;;14.97;62.29199;102229.4;;;;-74
2023/10/16 15:17:16;;;;;;;;;;;;;;;14.81;58.59473;102218.9;;;;-74
2023/10/16 15:22:16;;;;;;;;;;;;;;;14.64;59.49316;102233.5;;;;-72
2023/10/16 15:27:16;;;;;;;;;;;;;;;14.45;59.75879;102230.3;;;;-73
2023/10/16 15:32:15;;;;;;;;;;;;;;;14.22;61.78223;102228.1;;;;-74
2023/10/16 15:33:09;;;;;;;4.6;0.8;;;;;;;;;;;;;-74
2023/10/16 15:37:15;;;;;;;;;;;;;;;14.07;62.70215;102231.5;;;;-74
2023/10/16 15:42:20;;;;;;;;;;;;;;;14.4;62.25488;102225.7;;;;-74
2023/10/16 15:47:18;;;;;;;;;;;;;;;14.57;60.66309;102225.8;;;;-76
2023/10/16 15:52:16;;;;;;;;;;;;;;;14.09;61.74219;102215.7;;;;-75
2023/10/16 15:57:15;;;;;;;;;;;;;;;13.72;62.84375;102209.8;;;;-75
2023/10/16 16:02:16;;;;;;;;;;;;;;;13.51;63.94434;102205.3;;;;-74
2023/10/16 16:03:14;;;;;;;3.4;0.8;;;;;;;;;;;;;-74
2023/10/16 16:07:15;;;;;;;;;;;;;;;13.24;66.25488;102206.1;;;;-75
2023/10/16 16:12:16;;;;;;;;;;;;;;;13.01;66.99023;102210.4;;;;-73
2023/10/16 16:17:15;;;;;;;;;;;;;;;12.77;67.80273;102199.9;;;;-75
2023/10/16 16:22:15;;;;;;;;;;;;;;;12.54;68.79297;102216.5;;;;-74
2023/10/16 16:27:15;;;;;;;;;;;;;;;12.36;70.43652;102219.9;;;;-74
2023/10/16 16:32:17;;;;;;;;;;;;;;;12.17;71.18555;102212.9;;;;-74
2023/10/16 16:33:12;;;;;;;4.1;1.1;;;;;;;;;;;;;-74
2023/10/16 16:37:15;;;;;;;;;;;;;;;11.99;72.6709;102218.7;;;;-75
2023/10/16 16:42:15;;;;;;;;;;;;;;;11.83;73.64453;102218.3;;;;-74
2023/10/16 16:47:15;;;;;;;;;;;;;;;11.67;74.76172;102217;;;;-74
2023/10/16 16:52:16;;;;;;;;;;;;;;;11.53;75.72559;102224;;;;-75
2023/10/16 16:57:15;;;;;;;;;;;;;;;11.38;76.55566;102219.4;;;;-74
2023/10/16 17:02:18;;;;;;;;;;;;;;;11.23;77.32715;102221.9;;;;-74
2023/10/16 17:03:14;;;;;;;5.1;1.2;;;;;;;;;;;;;-74
2023/10/16 17:07:15;;;;;;;;;;;;;;;11.09;78.0459;102223.5;;;;-74
2023/10/16 17:12:16;;;;;;;;;;;;;;;10.92;78.60352;102231.7;;;;-75
2023/10/16 17:17:16;;;;;;;;;;;;;;;10.81;78.85938;102241.5;;;;-75
2023/10/16 17:22:15;;;;;;;;;;;;;;;10.69;80.01172;102243.8;;;;-75
2023/10/16 17:27:17;;;;;;;;;;;;;;;10.59;81.47559;102240.9;;;;-74
2023/10/16 17:32:15;;;;;;;;;;;;;;;10.5;82.37695;102240.3;;;;-73
2023/10/16 17:33:15;;;;;;;4.3;1.8;;;;;;;;;;;;;-73
2023/10/16 17:37:15;;;;;;;;;;;;;;;10.37;83.5918;102231.3;;;;-74
2023/10/16 17:42:15;;;;;;;;;;;;;;;10.27;83.7041;102231.9;;;;-74
2023/10/16 17:47:16;;;;;;;;;;;;;;;10.16;84.21289;102234.2;;;;-73
2023/10/16 17:52:18;;;;;;;;;;;;;;;10.08;84.64941;102231.1;;;;-75
2023/10/16 17:57:16;;;;;;;;;;;;;;;10.01;85.41895;102229.7;;;;-74
2023/10/16 18:02:15;;;;;;;;;;;;;;;9.93;85.52637;102222.7;;;;-74
2023/10/16 18:03:16;;;;;;;9.6;2.7;;;;;;;;;;;;;-73
2023/10/16 18:07:18;;;;;;;;;;;;;;;9.86;86.90137;102219.7;;;;-74
2023/10/16 18:12:19;;;;;;;;;;;;;;;9.81;87.5625;102221.7;;;;-74
2023/10/16 18:17:19;;;;;;;;;;;;;;;9.73;87.48242;102221.6;;;;-73
2023/10/16 18:22:15;;;;;;;;;;;;;;;9.68;87.59277;102219.5;;;;-74
2023/10/16 18:27:17;;;;;;;;;;;;;;;9.63;87.46191;102222.7;;;;-75
2023/10/16 18:32:16;;;;;;;;;;;;;;;9.58;88.13379;102223.3;;;;-73
2023/10/16 18:33:19;;;;;;;8.5;3.2;;;;;;;;;;;;;-75
2023/10/16 18:37:16;;;;;;;;;;;;;;;9.57;88.49512;102235.9;;;;-75
2023/10/16 18:42:19;;;;;;;;;;;;;;;9.52;88.9043;102231.5;;;;-75
2023/10/16 18:47:17;;;;;;;;;;;;;;;9.52;89.24609;102223;;;;-75
2023/10/16 18:52:15;;;;;;;;;;;;;;;9.48;89.49219;102221.7;;;;-73
2023/10/16 18:57:16;;;;;;;;;;;;;;;9.43;89.97559;102223.2;;;;-76
2023/10/16 19:02:15;;;;;;;;;;;;;;;9.37;91.16113;102219.1;;;;-74
2023/10/16 19:03:20;;;;;;;7;2.7;;;;;;;;;;;;;-74
2023/10/16 19:07:17;;;;;;;;;;;;;;;9.34;91.88184;102215;;;;-74
2023/10/16 19:12:17;;;;;;;;;;;;;;;9.27;91.92285;102218.5;;;;-74
2023/10/16 19:17:15;;;;;;;;;;;;;;;9.16;92.77734;102216.7;;;;-73
2023/10/16 19:22:15;;;;;;;;;;;;;;;9.12;93.95605;102218.1;;;;-75
2023/10/16 19:27:16;;;;;;;;;;;;;;;9.06;94.28223;102216.7;;;;-74
2023/10/16 19:42:51;;;;;;;;;;;;;;;8.88;95.90234;102212.9;;;;-77
2023/10/16 19:47:48;;;;;;;;;;;;;;;8.83;95.90332;102215.7;;;;-77
2023/10/16 19:52:48;;;;;;;;;;;;;;;8.8;96.76172;102215.5;;;;-74
2023/10/16 19:57:51;;;;;;;;;;;;;;;8.74;97.09863;102204.8;;;;-77
2023/10/16 20:02:47;;;;;;;;;;;;;;;8.74;96.88965;102212.2;;;;-77
2023/10/16 20:03:21;;;;;;;7.5;2.9;;;;;;;;;;;;;-77
2023/10/16 20:07:47;;;;;;;;;;;;;;;8.71;97.97949;102208.5;;;;-78
2023/10/16 20:12:50;;;;;;;;;;;;;;;8.71;98.19922;102210.2;;;;-78
2023/10/16 20:17:50;;;;;;;;;;;;;;;8.71;98.05664;102215.4;;;;-79
2023/10/16 20:22:48;;;;;;;;;;;;;;;8.72;97.81738;102226.4;;;;-78
2023/10/16 20:27:49;;;;;;;;;;;;;;;8.73;97.20605;102234.4;;;;-79
2023/10/16 20:32:49;;;;;;;;;;;;;;;8.73;96.80957;102235.8;;;;-79
2023/10/16 20:33:24;;;;;;;10.3;1.9;;;;;;;;;;;;;-79
2023/10/16 20:37:51;;;;;;;;;;;;;;;8.71;96.58789;102234.9;;;;-77
2023/10/16 20:42:47;;;;;;;;;;;;;;;8.63;96.14453;102237;;;;-79
2023/10/16 20:47:48;;;;;;;;;;;;;;;8.5;95.96973;102241.1;;;;-78
2023/10/16 20:52:48;;;;;;;;;;;;;;;8.37;96.29199;102237.3;;;;-78
2023/10/16 20:57:50;;;;;;;;;;;;;;;8.25;95.84766;102238.9;;;;-79
2023/10/16 21:02:48;;;;;;;;;;;;;;;8.14;95.79297;102248.7;;;;-79
2023/10/16 21:03:25;;;;;;;8.4;2.9;;;;;;;;;;;;;-77
2023/10/16 21:07:52;;;;;;;;;;;;;;;8.01;96.33496;102249.6;;;;-78
2023/10/16 21:12:47;;;;;;;;;;;;;;;7.92;96.91602;102251.8;;;;-78
2023/10/16 21:17:47;;;;;;;;;;;;;;;7.81;97.75586;102260.4;;;;-78
2023/10/16 21:22:48;;;;;;;;;;;;;;;7.7;98.42871;102265;;;;-79
2023/10/16 21:27:47;;;;;;;;;;;;;;;7.58;98.18359;102267.3;;;;-77
2023/10/16 21:32:47;;;;;;;;;;;;;;;7.45;99.33496;102264.4;;;;-77
2023/10/16 21:33:26;;;;;;;7.5;2.1;;;;;;;;;;;;;-77
2023/10/16 21:37:49;;;;;;;;;;;;;;;7.38;99.92969;102264.1;;;;-76
2023/10/16 21:42:47;;;;;;;;;;;;;;;7.29;100;102263;;;;-76
2023/10/16 21:47:49;;;;;;;;;;;;;;;7.21;100;102267.7;;;;-77
2023/10/16 21:52:52;;;;;;;;;;;;;;;7.17;100;102267.3;;;;-77
2023/10/16 21:57:48;;;;;;;;;;;;;;;7.1;100;102280.1;;;;-77
2023/10/16 22:02:47;;;;;;;;;;;;;;;7.02;100;102282.1;;;;-74
2023/10/16 22:03:29;;;;;;;8.3;2.9;;;;;;;;;;;;;-74
2023/10/16 22:07:50;;;;;;;;;;;;;;;6.94;100;102283.1;;;;-74
2023/10/16 22:12:49;;;;;;;;;;;;;;;6.88;100;102289.4;;;;-76
2023/10/16 22:17:47;;;;;;;;;;;;;;;6.77;100;102277.1;;;;-75
2023/10/16 22:22:47;;;;;;;;;;;;;;;6.7;100;102269.1;;;;-74
2023/10/16 22:27:51;;;;;;;;;;;;;;;6.6;100;102256.1;;;;-75
2023/10/16 22:32:47;;;;;;;;;;;;;;;6.6;100;102255.8;;;;-77
2023/10/16 22:33:26;;;;;;;4.7;2;;;;;;;;;;;;;-76
2023/10/16 22:37:55;;;;;;;;;;;;;;;6.6;100;102250.4;;;;-73
2023/10/16 22:42:47;;;;;;;;;;;;;;;6.6;100;102255.2;;;;-73
2023/10/16 22:47:47;;;;;;;;;;;;;;;6.53;100;102247.8;;;;-74
2023/10/16 22:52:48;;;;;;;;;;;;;;;6.48;100;102243;;;;-75
2023/10/16 22:57:47;;;;;;;;;;;;;;;6.45;100;102238;;;;-74
2023/10/16 23:02:47;;;;;;;;;;;;;;;6.4;100;102244.3;;;;-75
2023/10/16 23:03:27;;;;;;;5.5;2.1;;;;;;;;;;;;;-74
2023/10/16 23:07:49;;;;;;;;;;;;;;;6.34;100;102235.1;;;;-74
2023/10/16 23:12:47;;;;;;;;;;;;;;;6.35;100;102228.8;;;;-75
2023/10/16 23:17:47;;;;;;;;;;;;;;;6.38;100;102229;;;;-75
2023/10/16 23:22:51;;;;;;;;;;;;;;;6.36;100;102236.5;;;;-73
2023/10/16 23:27:47;;;;;;;;;;;;;;;6.33;100;102230.8;;;;-74
2023/10/16 23:32:49;;;;;;;;;;;;;;;6.35;100;102230.1;;;;-75
2023/10/16 23:33:28;;;;;;;7.1;2.2;;;;;;;;;;;;;-73
2023/10/16 23:37:47;;;;;;;;;;;;;;;6.36;100;102220.5;;;;-73
2023/10/16 23:42:47;;;;;;;;;;;;;;;6.36;100;102222.8;;;;-74
2023/10/16 23:47:48;;;;;;;;;;;;;;;6.39;100;102218.5;;;;-72
2023/10/16 23:53:11;;;;;;;;;;;;;;;6.4;100;102214.4;;;;-75
2023/10/16 23:57:52;;;;;;;;;;;;;;;6.43;100;102212.3;;;;-74
